Terminal Aerodrome Forecast
Issued by NWS

Home | Current Version | Previous Version | Text Only | Print | Product List | Glossary On
Versions: 1 2 3 4 5 6 7 8 9 10 11 12
000
FTUS44 KOUN 260520
TAFLAW
TAF
KLAW 260520Z 2606/2706 18007KT P6SM SKC
     FM261500 19017G25KT P6SM SCT250
     FM270000 16014G20KT P6SM BKN250=

USA.gov is the U.S. government's official web portal to all federal, state and local government web resources and services.